sensor_id;sensor_type;location;lat;lon;timestamp;temperature;humidity
46784;DHT22;32544;52.832;13.816;2023-07-20T00:00:50;26.50;45.20
46784;DHT22;32544;52.832;13.816;2023-07-20T00:01:53;26.50;45.20
46784;DHT22;32544;52.832;13.816;2023-07-20T00:03:09;26.50;45.20
46784;DHT22;32544;52.832;13.816;2023-07-20T00:04:10;26.50;45.20
46784;DHT22;32544;52.832;13.816;2023-07-20T00:05:10;26.50;45.10
46784;DHT22;32544;52.832;13.816;2023-07-20T00:06:11;26.50;45.10
46784;DHT22;32544;52.832;13.816;2023-07-20T00:07:11;26.50;45.10
46784;DHT22;32544;52.832;13.816;2023-07-20T00:08:12;26.50;45.10
46784;DHT22;32544;52.832;13.816;2023-07-20T00:09:12;26.50;45.10
46784;DHT22;32544;52.832;13.816;2023-07-20T00:10:13;26.50;45.10
46784;DHT22;32544;52.832;13.816;2023-07-20T00:11:14;26.50;45.10
46784;DHT22;32544;52.832;13.816;2023-07-20T00:12:14;26.50;45.10
46784;DHT22;32544;52.832;13.816;2023-07-20T00:13:15;26.40;45.10
46784;DHT22;32544;52.832;13.816;2023-07-20T00:14:16;26.40;45.10
46784;DHT22;32544;52.832;13.816;2023-07-20T00:15:17;26.40;45.10
46784;DHT22;32544;52.832;13.816;2023-07-20T00:16:17;26.40;45.10
46784;DHT22;32544;52.832;13.816;2023-07-20T00:17:18;26.40;45.10
46784;DHT22;32544;52.832;13.816;2023-07-20T00:18:19;26.40;45.10
46784;DHT22;32544;52.832;13.816;2023-07-20T00:19:22;26.40;45.20
46784;DHT22;32544;52.832;13.816;2023-07-20T00:20:23;26.40;45.10
46784;DHT22;32544;52.832;13.816;2023-07-20T00:21:24;26.40;45.20
46784;DHT22;32544;52.832;13.816;2023-07-20T00:22:25;26.40;45.10
46784;DHT22;32544;52.832;13.816;2023-07-20T00:23:26;26.40;45.10
46784;DHT22;32544;52.832;13.816;2023-07-20T00:24:26;26.40;45.10
46784;DHT22;32544;52.832;13.816;2023-07-20T00:25:27;26.40;45.10
46784;DHT22;32544;52.832;13.816;2023-07-20T00:26:28;26.40;45.10
46784;DHT22;32544;52.832;13.816;2023-07-20T00:27:28;26.40;45.10
46784;DHT22;32544;52.832;13.816;2023-07-20T00:28:29;26.40;45.10
46784;DHT22;32544;52.832;13.816;2023-07-20T00:29:30;26.40;45.10
46784;DHT22;32544;52.832;13.816;2023-07-20T00:30:30;26.40;45.10
46784;DHT22;32544;52.832;13.816;2023-07-20T00:31:31;26.40;45.20
46784;DHT22;32544;52.832;13.816;2023-07-20T00:32:31;26.40;45.10
46784;DHT22;32544;52.832;13.816;2023-07-20T00:33:32;26.40;45.10
46784;DHT22;32544;52.832;13.816;2023-07-20T00:34:33;26.40;45.20
46784;DHT22;32544;52.832;13.816;2023-07-20T00:35:33;26.40;45.10
46784;DHT22;32544;52.832;13.816;2023-07-20T00:36:34;26.40;45.10
46784;DHT22;32544;52.832;13.816;2023-07-20T00:37:36;26.50;45.20
46784;DHT22;32544;52.832;13.816;2023-07-20T00:38:37;26.40;45.10
46784;DHT22;32544;52.832;13.816;2023-07-20T00:39:37;26.40;45.10
46784;DHT22;32544;52.832;13.816;2023-07-20T00:40:39;26.40;45.10
46784;DHT22;32544;52.832;13.816;2023-07-20T00:41:40;26.40;45.10
46784;DHT22;32544;52.832;13.816;2023-07-20T00:42:40;26.40;45.10
46784;DHT22;32544;52.832;13.816;2023-07-20T00:43:41;26.40;45.10
46784;DHT22;32544;52.832;13.816;2023-07-20T00:44:42;26.40;45.10
46784;DHT22;32544;52.832;13.816;2023-07-20T00:45:42;26.40;45.10
46784;DHT22;32544;52.832;13.816;2023-07-20T00:46:44;26.40;45.20
46784;DHT22;32544;52.832;13.816;2023-07-20T00:47:44;26.40;45.20
46784;DHT22;32544;52.832;13.816;2023-07-20T00:48:45;26.40;45.20
46784;DHT22;32544;52.832;13.816;2023-07-20T00:49:46;26.40;45.20
46784;DHT22;32544;52.832;13.816;2023-07-20T00:50:46;26.40;45.20
46784;DHT22;32544;52.832;13.816;2023-07-20T00:51:48;26.40;45.20
46784;DHT22;32544;52.832;13.816;2023-07-20T00:52:50;26.40;45.20
46784;DHT22;32544;52.832;13.816;2023-07-20T00:53:53;26.40;45.20
46784;DHT22;32544;52.832;13.816;2023-07-20T00:54:54;26.40;45.20
46784;DHT22;32544;52.832;13.816;2023-07-20T00:55:56;26.40;45.20
46784;DHT22;32544;52.832;13.816;2023-07-20T00:56:57;26.40;45.20
46784;DHT22;32544;52.832;13.816;2023-07-20T00:57:59;26.40;45.20
46784;DHT22;32544;52.832;13.816;2023-07-20T00:59:00;26.40;45.20
46784;DHT22;32544;52.832;13.816;2023-07-20T01:00:02;26.40;45.20
46784;DHT22;32544;52.832;13.816;2023-07-20T01:01:03;26.40;45.20
46784;DHT22;32544;52.832;13.816;2023-07-20T01:02:03;26.40;45.20
46784;DHT22;32544;52.832;13.816;2023-07-20T01:03:04;26.40;45.20
46784;DHT22;32544;52.832;13.816;2023-07-20T01:04:05;26.40;45.20
46784;DHT22;32544;52.832;13.816;2023-07-20T01:05:05;26.40;45.20
46784;DHT22;32544;52.832;13.816;2023-07-20T01:06:24;26.40;45.20
46784;DHT22;32544;52.832;13.816;2023-07-20T01:07:29;26.40;45.20
46784;DHT22;32544;52.832;13.816;2023-07-20T01:09:18;26.40;45.20
46784;DHT22;32544;52.832;13.816;2023-07-20T01:10:01;26.40;45.20
46784;DHT22;32544;52.832;13.816;2023-07-20T01:11:08;26.40;45.20
46784;DHT22;32544;52.832;13.816;2023-07-20T01:12:52;26.40;45.20
46784;DHT22;32544;52.832;13.816;2023-07-20T01:13:33;26.30;45.20
46784;DHT22;32544;52.832;13.816;2023-07-20T01:14:34;26.40;45.30
46784;DHT22;32544;52.832;13.816;2023-07-20T01:15:35;26.30;45.20
46784;DHT22;32544;52.832;13.816;2023-07-20T01:16:36;26.40;45.30
46784;DHT22;32544;52.832;13.816;2023-07-20T01:17:36;26.40;45.30
46784;DHT22;32544;52.832;13.816;2023-07-20T01:18:37;26.40;45.20
46784;DHT22;32544;52.832;13.816;2023-07-20T01:19:38;26.40;45.10
46784;DHT22;32544;52.832;13.816;2023-07-20T01:20:39;26.40;45.10
46784;DHT22;32544;52.832;13.816;2023-07-20T01:21:40;26.40;45.20
46784;DHT22;32544;52.832;13.816;2023-07-20T01:23:00;26.40;45.10
46784;DHT22;32544;52.832;13.816;2023-07-20T01:25:18;26.40;45.10
46784;DHT22;32544;52.832;13.816;2023-07-20T01:30:25;26.30;45.20
46784;DHT22;32544;52.832;13.816;2023-07-20T01:31:28;26.30;45.20
46784;DHT22;32544;52.832;13.816;2023-07-20T01:32:30;26.30;45.20
46784;DHT22;32544;52.832;13.816;2023-07-20T01:33:31;26.30;45.20
46784;DHT22;32544;52.832;13.816;2023-07-20T01:34:33;26.30;45.20
46784;DHT22;32544;52.832;13.816;2023-07-20T01:35:35;26.40;45.20
46784;DHT22;32544;52.832;13.816;2023-07-20T01:36:37;26.30;45.10
46784;DHT22;32544;52.832;13.816;2023-07-20T01:37:38;26.30;45.10
46784;DHT22;32544;52.832;13.816;2023-07-20T01:38:39;26.40;45.20
46784;DHT22;32544;52.832;13.816;2023-07-20T01:39:40;26.40;45.10
46784;DHT22;32544;52.832;13.816;2023-07-20T01:40:41;26.40;45.10
46784;DHT22;32544;52.832;13.816;2023-07-20T01:41:42;26.30;45.10
46784;DHT22;32544;52.832;13.816;2023-07-20T01:42:44;26.40;45.20
46784;DHT22;32544;52.832;13.816;2023-07-20T01:43:45;26.30;45.10
46784;DHT22;32544;52.832;13.816;2023-07-20T01:44:46;26.30;45.20
46784;DHT22;32544;52.832;13.816;2023-07-20T01:45:46;26.30;45.20
46784;DHT22;32544;52.832;13.816;2023-07-20T01:46:47;26.30;45.20
46784;DHT22;32544;52.832;13.816;2023-07-20T01:47:48;26.30;45.20
46784;DHT22;32544;52.832;13.816;2023-07-20T01:48:49;26.30;45.10
46784;DHT22;32544;52.832;13.816;2023-07-20T01:49:51;26.40;45.20
46784;DHT22;32544;52.832;13.816;2023-07-20T01:50:51;26.30;45.10
46784;DHT22;32544;52.832;13.816;2023-07-20T01:51:52;26.30;45.10
46784;DHT22;32544;52.832;13.816;2023-07-20T01:52:52;26.40;45.10
46784;DHT22;32544;52.832;13.816;2023-07-20T01:53:53;26.40;45.10
46784;DHT22;32544;52.832;13.816;2023-07-20T01:54:54;26.40;45.10
46784;DHT22;32544;52.832;13.816;2023-07-20T01:55:54;26.40;45.20
46784;DHT22;32544;52.832;13.816;2023-07-20T01:56:55;26.40;45.20
46784;DHT22;32544;52.832;13.816;2023-07-20T01:57:56;26.30;45.10
46784;DHT22;32544;52.832;13.816;2023-07-20T01:58:57;26.30;45.10
46784;DHT22;32544;52.832;13.816;2023-07-20T01:59:57;26.30;45.20
46784;DHT22;32544;52.832;13.816;2023-07-20T02:00:58;26.30;45.20
46784;DHT22;32544;52.832;13.816;2023-07-20T02:01:59;26.30;45.20
46784;DHT22;32544;52.832;13.816;2023-07-20T02:02:59;26.30;45.20
46784;DHT22;32544;52.832;13.816;2023-07-20T02:04:00;26.30;45.30
46784;DHT22;32544;52.832;13.816;2023-07-20T02:05:01;26.30;45.30
46784;DHT22;32544;52.832;13.816;2023-07-20T02:06:01;26.30;45.30
46784;DHT22;32544;52.832;13.816;2023-07-20T02:07:02;26.30;45.30
46784;DHT22;32544;52.832;13.816;2023-07-20T02:08:02;26.30;45.30
46784;DHT22;32544;52.832;13.816;2023-07-20T02:09:03;26.30;45.30
46784;DHT22;32544;52.832;13.816;2023-07-20T02:10:05;26.30;45.30
46784;DHT22;32544;52.832;13.816;2023-07-20T02:11:06;26.30;45.30
46784;DHT22;32544;52.832;13.816;2023-07-20T02:12:07;26.20;45.20
46784;DHT22;32544;52.832;13.816;2023-07-20T02:13:07;26.20;45.20
46784;DHT22;32544;52.832;13.816;2023-07-20T02:14:08;26.30;45.30
46784;DHT22;32544;52.832;13.816;2023-07-20T02:15:09;26.30;45.30
46784;DHT22;32544;52.832;13.816;2023-07-20T02:16:09;26.30;45.30
46784;DHT22;32544;52.832;13.816;2023-07-20T02:17:11;26.20;45.30
46784;DHT22;32544;52.832;13.816;2023-07-20T02:18:12;26.30;45.30
46784;DHT22;32544;52.832;13.816;2023-07-20T02:19:14;26.20;45.30
46784;DHT22;32544;52.832;13.816;2023-07-20T02:20:14;26.20;45.40
46784;DHT22;32544;52.832;13.816;2023-07-20T02:21:15;26.20;45.40
46784;DHT22;32544;52.832;13.816;2023-07-20T02:22:15;26.20;45.40
46784;DHT22;32544;52.832;13.816;2023-07-20T02:23:17;26.20;45.50
46784;DHT22;32544;52.832;13.816;2023-07-20T02:24:18;26.10;45.50
46784;DHT22;32544;52.832;13.816;2023-07-20T02:25:19;26.10;45.60
46784;DHT22;32544;52.832;13.816;2023-07-20T02:26:20;26.10;45.60
46784;DHT22;32544;52.832;13.816;2023-07-20T02:27:20;26.10;45.60
46784;DHT22;32544;52.832;13.816;2023-07-20T02:28:21;26.10;45.60
46784;DHT22;32544;52.832;13.816;2023-07-20T02:29:21;26.10;45.60
46784;DHT22;32544;52.832;13.816;2023-07-20T02:30:22;26.10;45.70
46784;DHT22;32544;52.832;13.816;2023-07-20T02:31:23;26.10;45.80
46784;DHT22;32544;52.832;13.816;2023-07-20T02:32:23;26.00;45.70
46784;DHT22;32544;52.832;13.816;2023-07-20T02:33:24;26.10;45.80
46784;DHT22;32544;52.832;13.816;2023-07-20T02:34:25;26.10;45.80
46784;DHT22;32544;52.832;13.816;2023-07-20T02:35:25;26.10;45.80
46784;DHT22;32544;52.832;13.816;2023-07-20T02:36:26;26.10;45.80
46784;DHT22;32544;52.832;13.816;2023-07-20T02:37:27;26.10;45.70
46784;DHT22;32544;52.832;13.816;2023-07-20T02:38:27;26.10;45.70
46784;DHT22;32544;52.832;13.816;2023-07-20T02:39:28;26.10;45.80
46784;DHT22;32544;52.832;13.816;2023-07-20T02:40:29;26.00;45.80
46784;DHT22;32544;52.832;13.816;2023-07-20T02:41:32;26.10;45.80
46784;DHT22;32544;52.832;13.816;2023-07-20T02:42:33;26.10;45.90
46784;DHT22;32544;52.832;13.816;2023-07-20T02:43:34;26.00;45.80
46784;DHT22;32544;52.832;13.816;2023-07-20T02:44:34;26.00;45.80
46784;DHT22;32544;52.832;13.816;2023-07-20T02:45:39;26.10;45.90
46784;DHT22;32544;52.832;13.816;2023-07-20T02:46:40;26.00;45.80
46784;DHT22;32544;52.832;13.816;2023-07-20T02:47:41;26.00;45.80
46784;DHT22;32544;52.832;13.816;2023-07-20T02:48:41;26.10;45.90
46784;DHT22;32544;52.832;13.816;2023-07-20T02:49:42;26.10;46.50
46784;DHT22;32544;52.832;13.816;2023-07-20T02:50:43;26.10;45.80
46784;DHT22;32544;52.832;13.816;2023-07-20T02:51:44;26.10;45.80
46784;DHT22;32544;52.832;13.816;2023-07-20T02:52:45;26.10;45.90
46784;DHT22;32544;52.832;13.816;2023-07-20T02:53:45;26.10;45.90
46784;DHT22;32544;52.832;13.816;2023-07-20T02:54:46;26.00;45.90
46784;DHT22;32544;52.832;13.816;2023-07-20T02:55:46;26.00;45.90
46784;DHT22;32544;52.832;13.816;2023-07-20T02:56:47;26.00;46.00
46784;DHT22;32544;52.832;13.816;2023-07-20T02:57:48;26.00;46.00
46784;DHT22;32544;52.832;13.816;2023-07-20T02:58:49;26.00;46.00
46784;DHT22;32544;52.832;13.816;2023-07-20T02:59:49;26.00;46.00
46784;DHT22;32544;52.832;13.816;2023-07-20T03:00:50;25.90;45.90
46784;DHT22;32544;52.832;13.816;2023-07-20T03:01:50;26.00;46.00
46784;DHT22;32544;52.832;13.816;2023-07-20T03:02:51;26.00;46.00
46784;DHT22;32544;52.832;13.816;2023-07-20T03:03:56;26.00;46.10
46784;DHT22;32544;52.832;13.816;2023-07-20T03:04:56;26.00;46.00
46784;DHT22;32544;52.832;13.816;2023-07-20T03:06:01;26.00;46.00
46784;DHT22;32544;52.832;13.816;2023-07-20T03:07:04;26.00;46.00
46784;DHT22;32544;52.832;13.816;2023-07-20T03:08:05;26.00;46.00
46784;DHT22;32544;52.832;13.816;2023-07-20T03:09:06;26.00;46.00
46784;DHT22;32544;52.832;13.816;2023-07-20T03:10:07;26.00;46.00
46784;DHT22;32544;52.832;13.816;2023-07-20T03:11:09;26.00;46.00
46784;DHT22;32544;52.832;13.816;2023-07-20T03:12:10;26.00;46.00
46784;DHT22;32544;52.832;13.816;2023-07-20T03:13:11;26.00;46.00
46784;DHT22;32544;52.832;13.816;2023-07-20T03:14:13;26.10;46.00
46784;DHT22;32544;52.832;13.816;2023-07-20T03:15:14;26.00;46.00
46784;DHT22;32544;52.832;13.816;2023-07-20T03:16:17;26.00;46.00
46784;DHT22;32544;52.832;13.816;2023-07-20T03:17:18;26.10;46.00
46784;DHT22;32544;52.832;13.816;2023-07-20T03:18:20;26.10;46.00
46784;DHT22;32544;52.832;13.816;2023-07-20T03:19:21;26.00;46.00
46784;DHT22;32544;52.832;13.816;2023-07-20T03:20:22;26.00;46.00
46784;DHT22;32544;52.832;13.816;2023-07-20T03:21:22;26.10;46.00
46784;DHT22;32544;52.832;13.816;2023-07-20T03:22:23;26.10;46.10
46784;DHT22;32544;52.832;13.816;2023-07-20T03:23:24;26.00;46.00
46784;DHT22;32544;52.832;13.816;2023-07-20T03:24:26;26.00;46.00
46784;DHT22;32544;52.832;13.816;2023-07-20T03:25:27;26.00;46.10
46784;DHT22;32544;52.832;13.816;2023-07-20T03:26:28;26.00;46.10
46784;DHT22;32544;52.832;13.816;2023-07-20T03:27:28;26.00;46.10
46784;DHT22;32544;52.832;13.816;2023-07-20T03:28:29;26.00;46.10
46784;DHT22;32544;52.832;13.816;2023-07-20T03:29:31;26.00;46.10
46784;DHT22;32544;52.832;13.816;2023-07-20T03:30:32;26.00;46.00
46784;DHT22;32544;52.832;13.816;2023-07-20T03:31:32;26.00;46.00
46784;DHT22;32544;52.832;13.816;2023-07-20T03:32:33;26.10;46.10
46784;DHT22;32544;52.832;13.816;2023-07-20T03:33:35;26.10;46.10
46784;DHT22;32544;52.832;13.816;2023-07-20T03:34:36;26.00;46.00
46784;DHT22;32544;52.832;13.816;2023-07-20T03:35:36;26.00;46.00
46784;DHT22;32544;52.832;13.816;2023-07-20T03:36:38;26.10;46.10
46784;DHT22;32544;52.832;13.816;2023-07-20T03:37:38;26.00;46.10
46784;DHT22;32544;52.832;13.816;2023-07-20T03:38:39;26.10;46.20
46784;DHT22;32544;52.832;13.816;2023-07-20T03:39:40;26.00;46.80
46784;DHT22;32544;52.832;13.816;2023-07-20T03:40:50;26.00;46.20
46784;DHT22;32544;52.832;13.816;2023-07-20T03:41:51;26.00;46.30
46784;DHT22;32544;52.832;13.816;2023-07-20T03:42:52;26.00;46.30
46784;DHT22;32544;52.832;13.816;2023-07-20T03:43:53;26.00;46.30
46784;DHT22;32544;52.832;13.816;2023-07-20T03:44:53;26.00;46.40
46784;DHT22;32544;52.832;13.816;2023-07-20T03:45:54;26.00;46.30
46784;DHT22;32544;52.832;13.816;2023-07-20T03:46:55;26.00;46.40
46784;DHT22;32544;52.832;13.816;2023-07-20T03:47:55;26.00;46.40
46784;DHT22;32544;52.832;13.816;2023-07-20T03:48:57;26.00;46.40
46784;DHT22;32544;52.832;13.816;2023-07-20T03:49:58;26.00;46.40
46784;DHT22;32544;52.832;13.816;2023-07-20T03:50:58;25.90;46.30
46784;DHT22;32544;52.832;13.816;2023-07-20T03:52:01;25.90;46.30
46784;DHT22;32544;52.832;13.816;2023-07-20T03:53:03;26.00;46.40
46784;DHT22;32544;52.832;13.816;2023-07-20T03:54:04;26.00;46.50
46784;DHT22;32544;52.832;13.816;2023-07-20T03:55:05;26.00;46.40
46784;DHT22;32544;52.832;13.816;2023-07-20T03:56:06;25.90;46.50
46784;DHT22;32544;52.832;13.816;2023-07-20T03:57:06;25.90;46.50
46784;DHT22;32544;52.832;13.816;2023-07-20T03:58:07;25.90;46.50
46784;DHT22;32544;52.832;13.816;2023-07-20T03:59:08;25.90;46.50
46784;DHT22;32544;52.832;13.816;2023-07-20T04:00:09;25.90;46.60
46784;DHT22;32544;52.832;13.816;2023-07-20T04:01:16;25.90;46.60
46784;DHT22;32544;52.832;13.816;2023-07-20T04:02:17;25.90;46.70
46784;DHT22;32544;52.832;13.816;2023-07-20T04:03:18;25.90;46.80
46784;DHT22;32544;52.832;13.816;2023-07-20T04:04:19;25.90;46.80
46784;DHT22;32544;52.832;13.816;2023-07-20T04:05:19;25.80;46.80
46784;DHT22;32544;52.832;13.816;2023-07-20T04:06:20;25.90;46.70
46784;DHT22;32544;52.832;13.816;2023-07-20T04:07:20;25.90;46.70
46784;DHT22;32544;52.832;13.816;2023-07-20T04:08:22;25.90;46.70
46784;DHT22;32544;52.832;13.816;2023-07-20T04:09:24;25.90;46.80
46784;DHT22;32544;52.832;13.816;2023-07-20T04:10:24;25.80;46.70
46784;DHT22;32544;52.832;13.816;2023-07-20T04:11:26;25.80;46.80
46784;DHT22;32544;52.832;13.816;2023-07-20T04:12:27;25.80;46.70
46784;DHT22;32544;52.832;13.816;2023-07-20T04:13:27;25.80;46.80
46784;DHT22;32544;52.832;13.816;2023-07-20T04:14:28;25.80;46.80
46784;DHT22;32544;52.832;13.816;2023-07-20T04:15:29;25.80;46.80
46784;DHT22;32544;52.832;13.816;2023-07-20T04:16:29;25.80;46.90
46784;DHT22;32544;52.832;13.816;2023-07-20T04:17:30;25.80;46.80
46784;DHT22;32544;52.832;13.816;2023-07-20T04:18:30;25.80;46.90
46784;DHT22;32544;52.832;13.816;2023-07-20T04:19:31;25.80;47.00
46784;DHT22;32544;52.832;13.816;2023-07-20T04:20:31;25.80;47.00
46784;DHT22;32544;52.832;13.816;2023-07-20T04:21:33;25.80;47.00
46784;DHT22;32544;52.832;13.816;2023-07-20T04:22:34;25.80;47.00
46784;DHT22;32544;52.832;13.816;2023-07-20T04:23:35;25.80;47.00
46784;DHT22;32544;52.832;13.816;2023-07-20T04:24:36;25.80;47.00
46784;DHT22;32544;52.832;13.816;2023-07-20T04:25:38;25.80;46.90
46784;DHT22;32544;52.832;13.816;2023-07-20T04:26:39;25.80;46.80
46784;DHT22;32544;52.832;13.816;2023-07-20T04:27:40;25.80;46.70
46784;DHT22;32544;52.832;13.816;2023-07-20T04:28:41;25.90;46.80
46784;DHT22;32544;52.832;13.816;2023-07-20T04:29:44;25.90;46.80
46784;DHT22;32544;52.832;13.816;2023-07-20T04:30:44;25.90;46.70
46784;DHT22;32544;52.832;13.816;2023-07-20T04:31:45;26.00;46.70
46784;DHT22;32544;52.832;13.816;2023-07-20T04:32:46;25.90;46.70
46784;DHT22;32544;52.832;13.816;2023-07-20T04:33:48;25.90;46.60
46784;DHT22;32544;52.832;13.816;2023-07-20T04:34:50;26.00;46.70
46784;DHT22;32544;52.832;13.816;2023-07-20T04:35:52;26.00;46.70
46784;DHT22;32544;52.832;13.816;2023-07-20T04:36:59;25.90;46.60
46784;DHT22;32544;52.832;13.816;2023-07-20T04:38:01;26.00;46.70
46784;DHT22;32544;52.832;13.816;2023-07-20T04:39:01;26.00;46.70
46784;DHT22;32544;52.832;13.816;2023-07-20T04:40:09;25.90;46.50
46784;DHT22;32544;52.832;13.816;2023-07-20T04:41:10;26.00;46.70
46784;DHT22;32544;52.832;13.816;2023-07-20T04:42:15;26.00;46.60
46784;DHT22;32544;52.832;13.816;2023-07-20T04:43:16;26.00;46.50
46784;DHT22;32544;52.832;13.816;2023-07-20T04:44:17;26.00;46.50
46784;DHT22;32544;52.832;13.816;2023-07-20T04:45:18;26.00;46.50
46784;DHT22;32544;52.832;13.816;2023-07-20T04:46:19;26.00;46.40
46784;DHT22;32544;52.832;13.816;2023-07-20T04:47:21;26.10;46.60
46784;DHT22;32544;52.832;13.816;2023-07-20T04:48:24;26.00;46.60
46784;DHT22;32544;52.832;13.816;2023-07-20T04:49:26;26.00;46.60
46784;DHT22;32544;52.832;13.816;2023-07-20T04:50:27;26.00;46.60
46784;DHT22;32544;52.832;13.816;2023-07-20T04:51:28;26.00;46.60
46784;DHT22;32544;52.832;13.816;2023-07-20T04:52:30;26.00;46.70
46784;DHT22;32544;52.832;13.816;2023-07-20T04:53:32;26.00;46.70
46784;DHT22;32544;52.832;13.816;2023-07-20T04:54:33;26.00;46.80
46784;DHT22;32544;52.832;13.816;2023-07-20T04:55:33;26.00;46.70
46784;DHT22;32544;52.832;13.816;2023-07-20T04:56:35;26.00;46.70
46784;DHT22;32544;52.832;13.816;2023-07-20T04:57:37;25.90;46.80
46784;DHT22;32544;52.832;13.816;2023-07-20T04:58:38;26.00;46.80
46784;DHT22;32544;52.832;13.816;2023-07-20T04:59:38;26.00;46.80
46784;DHT22;32544;52.832;13.816;2023-07-20T05:00:39;26.00;46.80
46784;DHT22;32544;52.832;13.816;2023-07-20T05:01:40;25.90;46.80
46784;DHT22;32544;52.832;13.816;2023-07-20T05:02:41;25.90;46.80
46784;DHT22;32544;52.832;13.816;2023-07-20T05:03:43;25.90;46.80
46784;DHT22;32544;52.832;13.816;2023-07-20T05:04:44;25.90;46.90
46784;DHT22;32544;52.832;13.816;2023-07-20T05:05:46;25.90;46.90
46784;DHT22;32544;52.832;13.816;2023-07-20T05:06:46;25.90;46.90
46784;DHT22;32544;52.832;13.816;2023-07-20T05:07:47;25.90;46.90
46784;DHT22;32544;52.832;13.816;2023-07-20T05:23:07;25.80;47.00
46784;DHT22;32544;52.832;13.816;2023-07-20T05:24:08;25.80;47.00
46784;DHT22;32544;52.832;13.816;2023-07-20T05:25:09;25.80;47.00
46784;DHT22;32544;52.832;13.816;2023-07-20T05:26:10;25.80;47.10
46784;DHT22;32544;52.832;13.816;2023-07-20T05:27:11;25.80;47.10
46784;DHT22;32544;52.832;13.816;2023-07-20T05:28:11;25.80;47.20
46784;DHT22;32544;52.832;13.816;2023-07-20T05:29:12;25.80;47.20
46784;DHT22;32544;52.832;13.816;2023-07-20T05:30:13;25.80;47.10
46784;DHT22;32544;52.832;13.816;2023-07-20T05:31:13;25.80;47.10
46784;DHT22;32544;52.832;13.816;2023-07-20T05:32:14;25.80;47.10
46784;DHT22;32544;52.832;13.816;2023-07-20T05:33:14;25.80;47.00
46784;DHT22;32544;52.832;13.816;2023-07-20T05:34:15;25.90;47.10
46784;DHT22;32544;52.832;13.816;2023-07-20T05:35:15;25.80;47.20
46784;DHT22;32544;52.832;13.816;2023-07-20T05:36:17;25.90;47.20
46784;DHT22;32544;52.832;13.816;2023-07-20T05:37:17;25.80;47.20
46784;DHT22;32544;52.832;13.816;2023-07-20T05:38:18;25.80;47.20
46784;DHT22;32544;52.832;13.816;2023-07-20T05:39:19;25.80;47.20
46784;DHT22;32544;52.832;13.816;2023-07-20T05:40:19;25.80;47.90
46784;DHT22;32544;52.832;13.816;2023-07-20T05:41:21;25.80;47.20
46784;DHT22;32544;52.832;13.816;2023-07-20T05:42:22;25.80;47.30
46784;DHT22;32544;52.832;13.816;2023-07-20T05:43:23;25.80;47.30
46784;DHT22;32544;52.832;13.816;2023-07-20T05:44:24;25.80;47.30
46784;DHT22;32544;52.832;13.816;2023-07-20T05:45:24;25.80;47.30
46784;DHT22;32544;52.832;13.816;2023-07-20T05:46:25;25.80;47.40
46784;DHT22;32544;52.832;13.816;2023-07-20T05:47:25;25.80;47.50
46784;DHT22;32544;52.832;13.816;2023-07-20T05:48:26;25.80;47.40
46784;DHT22;32544;52.832;13.816;2023-07-20T05:49:27;25.80;47.50
46784;DHT22;32544;52.832;13.816;2023-07-20T05:50:27;25.80;47.50
46784;DHT22;32544;52.832;13.816;2023-07-20T05:51:28;25.80;47.50
46784;DHT22;32544;52.832;13.816;2023-07-20T05:52:28;25.80;47.40
46784;DHT22;32544;52.832;13.816;2023-07-20T05:53:29;25.80;47.30
46784;DHT22;32544;52.832;13.816;2023-07-20T05:54:30;25.80;47.30
46784;DHT22;32544;52.832;13.816;2023-07-20T05:55:31;25.80;47.30
46784;DHT22;32544;52.832;13.816;2023-07-20T05:56:31;25.80;47.20
46784;DHT22;32544;52.832;13.816;2023-07-20T05:57:32;25.90;47.50
46784;DHT22;32544;52.832;13.816;2023-07-20T05:58:33;25.90;47.50
46784;DHT22;32544;52.832;13.816;2023-07-20T05:59:33;25.90;47.70
46784;DHT22;32544;52.832;13.816;2023-07-20T06:00:34;25.90;47.70
46784;DHT22;32544;52.832;13.816;2023-07-20T06:01:34;25.90;47.60
46784;DHT22;32544;52.832;13.816;2023-07-20T06:02:35;25.90;47.50
46784;DHT22;32544;52.832;13.816;2023-07-20T06:03:36;25.90;47.60
46784;DHT22;32544;52.832;13.816;2023-07-20T06:04:38;25.90;47.60
46784;DHT22;32544;52.832;13.816;2023-07-20T06:05:39;25.90;47.60
46784;DHT22;32544;52.832;13.816;2023-07-20T06:06:39;25.90;47.60
46784;DHT22;32544;52.832;13.816;2023-07-20T06:07:40;25.90;47.80
46784;DHT22;32544;52.832;13.816;2023-07-20T06:08:41;25.90;47.80
46784;DHT22;32544;52.832;13.816;2023-07-20T06:09:41;25.90;48.00
46784;DHT22;32544;52.832;13.816;2023-07-20T06:10:42;25.90;48.00
46784;DHT22;32544;52.832;13.816;2023-07-20T06:11:42;25.90;47.90
46784;DHT22;32544;52.832;13.816;2023-07-20T06:12:43;25.90;48.00
46784;DHT22;32544;52.832;13.816;2023-07-20T06:13:44;25.90;48.10
46784;DHT22;32544;52.832;13.816;2023-07-20T06:14:44;25.90;48.20
46784;DHT22;32544;52.832;13.816;2023-07-20T06:15:45;25.90;48.10
46784;DHT22;32544;52.832;13.816;2023-07-20T06:16:45;25.90;48.10
46784;DHT22;32544;52.832;13.816;2023-07-20T06:17:46;25.80;48.10
46784;DHT22;32544;52.832;13.816;2023-07-20T06:18:46;25.90;48.00
46784;DHT22;32544;52.832;13.816;2023-07-20T06:19:47;25.90;48.10
46784;DHT22;32544;52.832;13.816;2023-07-20T06:20:48;25.90;48.10
46784;DHT22;32544;52.832;13.816;2023-07-20T06:21:49;25.90;48.10
46784;DHT22;32544;52.832;13.816;2023-07-20T06:22:52;25.90;48.10
46784;DHT22;32544;52.832;13.816;2023-07-20T06:23:53;25.80;48.20
46784;DHT22;32544;52.832;13.816;2023-07-20T06:24:53;25.80;48.20
46784;DHT22;32544;52.832;13.816;2023-07-20T06:25:54;25.80;48.30
46784;DHT22;32544;52.832;13.816;2023-07-20T06:26:54;25.80;48.30
46784;DHT22;32544;52.832;13.816;2023-07-20T06:27:55;25.80;48.20
46784;DHT22;32544;52.832;13.816;2023-07-20T06:28:56;25.80;48.10
46784;DHT22;32544;52.832;13.816;2023-07-20T06:29:57;25.80;48.20
46784;DHT22;32544;52.832;13.816;2023-07-20T06:31:01;25.80;48.10
46784;DHT22;32544;52.832;13.816;2023-07-20T06:32:01;25.80;48.20
46784;DHT22;32544;52.832;13.816;2023-07-20T06:33:02;25.80;48.20
46784;DHT22;32544;52.832;13.816;2023-07-20T06:34:03;25.80;48.10
46784;DHT22;32544;52.832;13.816;2023-07-20T06:35:03;25.80;48.20
46784;DHT22;32544;52.832;13.816;2023-07-20T06:36:04;25.80;48.10
46784;DHT22;32544;52.832;13.816;2023-07-20T06:37:05;25.80;48.20
46784;DHT22;32544;52.832;13.816;2023-07-20T06:38:05;25.80;48.20
46784;DHT22;32544;52.832;13.816;2023-07-20T06:39:06;25.80;48.50
46784;DHT22;32544;52.832;13.816;2023-07-20T06:40:07;25.80;48.30
46784;DHT22;32544;52.832;13.816;2023-07-20T06:41:09;25.80;48.40